Time;durP1;ratioP1;P1;durP2;ratioP2;P2;SDS_P1;SDS_P2;PMS_P1;PMS_P2;Temp;Humidity;BMP_temperature;BMP_pressure;BME280_temperature;BME280_humidity;BME280_pressure;Samples;Min_cycle;Max_cycle;Signal;HPM_P1;HPM_P2
2022/09/19 05:56:08;;;;;;;4.05;2.72;;;11.90;99.90;;;;;;4865862;29;20056;-73
2022/09/19 05:58:35;;;;;;;2.53;2.08;;;11.90;99.90;;;;;;4875154;29;20032;-69
2022/09/19 06:01:09;;;;;;;2.92;2.38;;;12.00;99.90;;;;;;4879661;29;20490;-68
2022/09/19 06:03:35;;;;;;;2.60;2.20;;;12.10;99.90;;;;;;4877308;29;20029;-73
2022/09/19 06:06:08;;;;;;;2.58;1.90;;;12.10;99.90;;;;;;4863400;29;20033;-69
2022/09/19 06:08:33;;;;;;;2.20;2.00;;;12.10;99.90;;;;;;4874157;29;20123;-70
2022/09/19 06:11:00;;;;;;;2.30;2.00;;;12.10;99.90;;;;;;4863657;29;20116;-68
2022/09/19 06:14:13;;;;;;;2.15;1.75;;;12.10;99.90;;;;;;4888177;29;20081;-67
2022/09/19 06:16:12;;;;;;;2.28;1.80;;;12.20;99.90;;;;;;4888332;29;20037;-70
2022/09/19 06:18:37;;;;;;;1.90;1.70;;;12.20;99.90;;;;;;4886193;29;20060;-70
2022/09/19 06:21:03;;;;;;;1.52;1.40;;;12.30;99.90;;;;;;4890757;29;20494;-69
2022/09/19 06:23:29;;;;;;;1.65;1.30;;;12.30;99.90;;;;;;4883443;29;20510;-68
2022/09/19 06:25:55;;;;;;;1.65;1.30;;;12.30;99.90;;;;;;4885690;29;20032;-69
2022/09/19 06:28:22;;;;;;;1.83;1.20;;;12.40;99.90;;;;;;4863984;29;20099;-67
2022/09/19 06:30:47;;;;;;;1.42;1.33;;;12.50;99.90;;;;;;4879910;29;20032;-70
2022/09/19 06:39:48;;;;;;;1.83;1.52;;;12.90;99.90;;;;;;5247389;23;20581;-65
2022/09/19 06:42:14;;;;;;;1.58;1.42;;;13.10;99.90;;;;;;4860721;29;20029;-62
2022/09/19 06:44:40;;;;;;;2.17;1.90;;;13.20;99.90;;;;;;4849839;29;20037;-62
2022/09/19 06:47:06;;;;;;;1.90;1.67;;;13.30;99.90;;;;;;4878135;29;20025;-59
2022/09/19 06:49:33;;;;;;;2.45;1.52;;;13.40;99.90;;;;;;4839553;29;20026;-61
2022/09/19 06:51:58;;;;;;;1.52;1.38;;;13.50;99.90;;;;;;4856886;29;20026;-64
2022/09/19 06:54:24;;;;;;;1.60;1.50;;;13.80;99.90;;;;;;4849970;29;20040;-61
2022/09/19 06:56:51;;;;;;;2.17;1.73;;;14.10;99.90;;;;;;4851761;29;20633;-64
2022/09/19 06:59:18;;;;;;;2.08;1.85;;;14.40;99.90;;;;;;4855632;29;20044;-64
2022/09/19 07:01:45;;;;;;;1.80;1.70;;;14.50;99.90;;;;;;4864942;29;20037;-63
2022/09/19 07:04:11;;;;;;;2.17;1.67;;;14.90;99.90;;;;;;4841637;29;20481;-61
2022/09/19 07:06:37;;;;;;;2.03;1.70;;;14.90;99.90;;;;;;4843534;29;20038;-62
2022/09/19 07:09:04;;;;;;;1.58;1.48;;;14.80;99.90;;;;;;4852819;29;20086;-62
2022/09/19 07:11:30;;;;;;;1.67;1.58;;;14.70;99.90;;;;;;4848865;29;20029;-64
2022/09/19 07:13:56;;;;;;;2.05;1.55;;;14.70;99.90;;;;;;4860404;29;20037;-60
2022/09/19 07:16:22;;;;;;;1.63;1.52;;;14.60;99.90;;;;;;4859694;29;20400;-65
2022/09/19 07:18:48;;;;;;;1.50;1.40;;;14.70;99.90;;;;;;4862915;29;20036;-63
2022/09/19 07:21:13;;;;;;;2.00;1.60;;;14.70;99.90;;;;;;4863392;29;20485;-66
2022/09/19 07:23:39;;;;;;;2.22;1.50;;;14.60;99.50;;;;;;4862826;29;20037;-66
2022/09/19 07:26:05;;;;;;;3.25;1.58;;;14.60;99.30;;;;;;4871556;29;20029;-66
2022/09/19 07:28:31;;;;;;;2.72;1.40;;;14.50;99.90;;;;;;4858592;29;20060;-63
2022/09/19 07:30:59;;;;;;;2.15;1.35;;;14.40;99.90;;;;;;4857128;29;20065;-62
2022/09/19 07:33:25;;;;;;;1.77;1.33;;;14.40;99.90;;;;;;4853826;29;20090;-66
2022/09/19 07:35:53;;;;;;;3.10;1.85;;;14.30;99.90;;;;;;4853127;29;20037;-63
2022/09/19 07:38:21;;;;;;;5.70;3.03;;;14.30;99.90;;;;;;4849074;29;20057;-62
2022/09/19 07:40:47;;;;;;;3.50;2.97;;;14.10;99.90;;;;;;4861754;29;20041;-66
2022/09/19 07:43:14;;;;;;;9.10;6.15;;;13.90;99.90;;;;;;4873591;29;20036;-66
2022/09/19 07:45:47;;;;;;;8.10;5.03;;;13.70;99.90;;;;;;4866109;29;20034;-62
2022/09/19 07:48:14;;;;;;;5.65;4.43;;;13.60;99.90;;;;;;4874833;29;20441;-62
2022/09/19 07:50:40;;;;;;;7.07;5.22;;;13.50;99.90;;;;;;4885853;29;20089;-64
2022/09/19 07:53:09;;;;;;;11.13;7.32;;;13.40;99.90;;;;;;4881408;29;20037;-61
2022/09/19 07:55:35;;;;;;;6.82;5.40;;;13.40;99.90;;;;;;4894737;29;20383;-66
2022/09/19 07:58:03;;;;;;;4.78;4.28;;;13.30;99.90;;;;;;4888010;29;20029;-64
2022/09/19 08:00:30;;;;;;;4.28;3.83;;;13.40;99.90;;;;;;4866608;29;20395;-66
2022/09/19 08:03:04;;;;;;;4.60;3.97;;;13.60;99.90;;;;;;4864797;29;20112;-64
2022/09/19 08:05:35;;;;;;;4.80;3.92;;;13.70;99.90;;;;;;4867637;29;20060;-63
2022/09/19 08:08:01;;;;;;;4.25;3.63;;;13.60;99.90;;;;;;4849542;29;20061;-64
2022/09/19 08:10:27;;;;;;;4.05;2.78;;;13.60;99.90;;;;;;4859481;29;20038;-65
2022/09/19 08:13:05;;;;;;;5.63;3.10;;;13.80;99.90;;;;;;4860980;29;20037;-64
2022/09/19 08:15:42;;;;;;;3.17;2.85;;;13.80;99.90;;;;;;4860143;29;20056;-62
2022/09/19 08:18:34;;;;;;;3.35;2.67;;;13.90;99.90;;;;;;4858125;29;21461;-62
2022/09/19 08:21:00;;;;;;;5.00;1.98;;;14.00;99.90;;;;;;4865429;29;20045;-65
2022/09/19 08:23:28;;;;;;;1.85;1.42;;;14.00;99.90;;;;;;4873074;29;20369;-64
2022/09/19 08:25:55;;;;;;;1.35;1.10;;;13.90;99.90;;;;;;4857867;29;20034;-63
2022/09/19 08:28:22;;;;;;;1.40;1.10;;;14.00;99.90;;;;;;4857574;29;20048;-64
2022/09/19 08:30:48;;;;;;;3.42;1.30;;;14.00;99.90;;;;;;4863968;29;20061;-62
2022/09/19 08:33:15;;;;;;;1.83;1.02;;;14.10;99.90;;;;;;4858441;29;20030;-61
2022/09/19 08:35:41;;;;;;;1.40;1.20;;;14.10;99.90;;;;;;4881591;29;20044;-66
2022/09/19 08:38:10;;;;;;;3.05;2.03;;;14.10;99.90;;;;;;4876330;29;20021;-61
2022/09/19 08:40:44;;;;;;;1.40;1.30;;;14.00;99.90;;;;;;4872118;29;20044;-63
2022/09/19 08:43:13;;;;;;;1.35;1.17;;;13.90;99.90;;;;;;4871997;29;20025;-61
2022/09/19 08:45:44;;;;;;;1.77;1.55;;;13.90;99.90;;;;;;4873807;29;20206;-62
2022/09/19 08:48:24;;;;;;;3.47;1.52;;;13.90;99.90;;;;;;4864266;29;20033;-62
2022/09/19 08:51:17;;;;;;;1.45;1.35;;;14.00;99.90;;;;;;4856838;29;20093;-62
2022/09/19 08:53:48;;;;;;;1.20;1.10;;;14.10;99.90;;;;;;4861555;29;20097;-63
2022/09/19 08:56:16;;;;;;;1.23;1.13;;;14.10;99.90;;;;;;4862112;29;20037;-66
2022/09/19 08:58:49;;;;;;;2.00;1.80;;;14.30;99.90;;;;;;4863944;29;20045;-62
2022/09/19 09:01:16;;;;;;;2.47;1.63;;;14.30;99.90;;;;;;4858988;29;20047;-61
2022/09/19 09:03:58;;;;;;;1.60;1.48;;;14.30;99.90;;;;;;4857193;29;20026;-61
2022/09/19 09:06:44;;;;;;;1.38;1.27;;;14.40;99.90;;;;;;4858583;29;20034;-61
2022/09/19 09:09:12;;;;;;;2.13;1.70;;;14.40;99.90;;;;;;4865922;29;20312;-63
2022/09/19 09:11:38;;;;;;;1.30;1.20;;;14.30;99.90;;;;;;4879008;29;20492;-64
2022/09/19 09:14:26;;;;;;;1.23;1.13;;;14.20;99.90;;;;;;4879725;29;20052;-64
2022/09/19 09:17:14;;;;;;;1.20;1.10;;;14.30;99.90;;;;;;4882894;29;20041;-64
2022/09/19 09:20:12;;;;;;;1.73;1.30;;;14.30;99.90;;;;;;4880917;29;20029;-64
2022/09/19 09:22:43;;;;;;;1.20;1.10;;;14.30;99.90;;;;;;4867940;29;20041;-60
2022/09/19 09:25:14;;;;;;;2.03;1.67;;;14.30;99.90;;;;;;4874460;29;20507;-65
2022/09/19 09:27:58;;;;;;;1.92;1.55;;;14.20;99.90;;;;;;4876436;29;20033;-62
2022/09/19 09:30:24;;;;;;;2.08;1.88;;;14.20;99.90;;;;;;4861605;29;20036;-61
2022/09/19 09:33:13;;;;;;;3.03;2.75;;;14.20;99.90;;;;;;4865094;29;20029;-63
2022/09/19 09:35:45;;;;;;;3.90;2.90;;;14.20;99.90;;;;;;4863377;29;20136;-62
2022/09/19 09:38:36;;;;;;;3.53;2.75;;;14.30;99.90;;;;;;4865621;29;20457;-62
2022/09/19 09:44:16;;;;;;;3.85;3.28;;;14.10;99.90;;;;;;4882840;29;20548;-64
2022/09/19 09:46:52;;;;;;;5.32;4.30;;;14.10;99.90;;;;;;4870583;29;20060;-63
2022/09/19 09:49:21;;;;;;;6.20;4.20;;;13.80;99.90;;;;;;4870982;29;20468;-63
2022/09/19 09:52:26;;;;;;;6.75;5.35;;;13.80;99.90;;;;;;4872179;29;20054;-66
2022/09/19 09:58:47;;;;;;;5.63;5.13;;;13.70;99.90;;;;;;4865557;29;20048;-65
2022/09/19 10:04:21;;;;;;;6.30;3.92;;;13.70;99.90;;;;;;4861475;29;20161;-64
2022/09/19 10:06:59;;;;;;;3.20;2.60;;;13.80;99.90;;;;;;4870349;29;20040;-63
2022/09/19 10:09:34;;;;;;;3.65;2.63;;;14.00;99.90;;;;;;4879173;29;20176;-65
2022/09/19 10:12:23;;;;;;;5.50;4.38;;;14.10;99.90;;;;;;4879425;29;20372;-62
2022/09/19 10:14:54;;;;;;;5.22;4.65;;;14.10;99.90;;;;;;4877589;29;20076;-64
2022/09/19 10:17:21;;;;;;;3.60;3.30;;;14.00;99.90;;;;;;4879562;29;20037;-62
2022/09/19 10:19:59;;;;;;;5.07;3.20;;;14.00;99.90;;;;;;4878623;29;20033;-64
2022/09/19 10:22:25;;;;;;;5.82;4.60;;;13.90;99.90;;;;;;4878869;29;20025;-64
2022/09/19 10:24:55;;;;;;;4.32;3.88;;;13.90;99.90;;;;;;4878918;29;20036;-61
2022/09/19 10:27:31;;;;;;;5.70;4.20;;;13.90;99.90;;;;;;4896559;29;20047;-63
2022/09/19 10:30:16;;;;;;;4.07;3.67;;;13.90;99.90;;;;;;4865652;29;20032;-61
2022/09/19 10:32:43;;;;;;;4.45;3.60;;;13.80;99.90;;;;;;4852713;29;20033;-65
2022/09/19 10:35:33;;;;;;;4.32;3.92;;;13.80;99.90;;;;;;4869984;29;20033;-62
2022/09/19 10:38:13;;;;;;;4.45;4.03;;;13.90;99.90;;;;;;4865186;29;20518;-64
2022/09/19 10:40:58;;;;;;;9.20;7.68;;;13.80;99.90;;;;;;4865915;29;20554;-62
2022/09/19 10:43:34;;;;;;;5.43;4.85;;;13.80;99.90;;;;;;4878675;29;20026;-62
2022/09/19 10:46:05;;;;;;;7.22;5.47;;;13.90;99.90;;;;;;4872493;29;20041;-61
2022/09/19 10:48:33;;;;;;;9.50;7.32;;;13.90;99.90;;;;;;4859404;29;20022;-61
2022/09/19 10:50:59;;;;;;;13.18;10.07;;;14.00;99.90;;;;;;4859309;29;20030;-60
2022/09/19 10:53:32;;;;;;;16.58;13.63;;;13.80;99.90;;;;;;4860269;29;20272;-60
2022/09/19 10:56:03;;;;;;;18.45;14.13;;;13.30;99.90;;;;;;4860282;29;20110;-62
2022/09/19 10:58:35;;;;;;;19.83;13.88;;;13.20;99.90;;;;;;4861363;29;20037;-61
2022/09/19 11:01:02;;;;;;;18.45;14.48;;;13.20;99.90;;;;;;4861385;29;20026;-61
2022/09/19 11:03:33;;;;;;;16.95;13.90;;;13.20;99.90;;;;;;4861490;29;20029;-61
2022/09/19 11:06:16;;;;;;;20.08;14.57;;;13.30;99.90;;;;;;4860638;29;20105;-61
2022/09/19 11:08:48;;;;;;;27.85;20.35;;;13.40;99.90;;;;;;4843038;29;20030;-61
2022/09/19 11:11:45;;;;;;;30.35;20.30;;;13.20;99.90;;;;;;4859400;29;20059;-64
2022/09/19 11:14:26;;;;;;;28.33;18.70;;;13.00;99.90;;;;;;4859363;29;20468;-65
2022/09/19 11:17:13;;;;;;;36.13;20.77;;;13.20;99.90;;;;;;4859710;29;20041;-63
2022/09/19 11:20:08;;;;;;;26.55;18.55;;;13.30;99.90;;;;;;4860312;29;20033;-62
2022/09/19 11:23:10;;;;;;;28.88;17.67;;;13.50;99.90;;;;;;4863193;29;20029;-62
2022/09/19 11:25:47;;;;;;;26.75;15.32;;;13.50;99.90;;;;;;4879791;29;20391;-62
2022/09/19 11:28:23;;;;;;;24.08;15.02;;;13.50;99.90;;;;;;4866674;29;20108;-62
2022/09/19 11:31:14;;;;;;;22.02;13.80;;;13.60;99.90;;;;;;4860494;29;20502;-62
2022/09/19 11:33:46;;;;;;;17.83;11.95;;;13.60;99.90;;;;;;4871951;29;20100;-63
2022/09/19 11:36:31;;;;;;;14.05;9.95;;;13.60;99.90;;;;;;4896567;29;20115;-62
2022/09/19 11:39:25;;;;;;;10.82;7.88;;;13.70;99.90;;;;;;4897783;29;20044;-61
2022/09/19 11:42:03;;;;;;;8.90;6.53;;;13.80;99.90;;;;;;4884366;29;20415;-61
2022/09/19 11:45:00;;;;;;;9.55;6.75;;;13.90;99.90;;;;;;4874647;29;20230;-61
2022/09/19 11:47:50;;;;;;;7.57;6.53;;;13.90;99.90;;;;;;4862305;29;20041;-62
2022/09/19 11:50:39;;;;;;;8.98;6.13;;;14.00;99.90;;;;;;4879043;29;20040;-61
2022/09/19 11:53:42;;;;;;;7.90;5.70;;;14.00;99.90;;;;;;4878694;29;20036;-60
2022/09/19 11:56:23;;;;;;;7.03;5.38;;;14.00;99.90;;;;;;4847349;29;20057;-64
2022/09/19 11:59:25;;;;;;;7.43;6.05;;;13.90;99.90;;;;;;4879459;29;20025;-64
2022/09/19 12:02:14;;;;;;;6.13;4.40;;;13.80;99.90;;;;;;4878336;29;20080;-63
2022/09/19 12:05:04;;;;;;;4.53;3.80;;;13.80;99.90;;;;;;4877813;29;20061;-60
2022/09/19 12:07:41;;;;;;;5.95;4.80;;;13.80;99.90;;;;;;4876911;29;20081;-61
2022/09/19 12:10:14;;;;;;;4.38;3.85;;;13.80;99.90;;;;;;4876839;29;20056;-64
2022/09/19 12:12:43;;;;;;;6.00;4.70;;;13.80;99.90;;;;;;4877087;29;20488;-63
2022/09/19 12:15:22;;;;;;;4.60;4.20;;;13.70;99.90;;;;;;4876962;29;20041;-60
2022/09/19 12:18:03;;;;;;;4.20;3.80;;;13.70;99.90;;;;;;4876729;29;20376;-60
2022/09/19 12:20:34;;;;;;;6.18;3.58;;;13.70;99.90;;;;;;4866630;29;20441;-63
2022/09/19 12:25:59;;;;;;;2.65;2.45;;;13.90;99.90;;;;;;4869361;29;20077;-61
2022/09/19 12:28:40;;;;;;;2.70;2.50;;;14.00;99.90;;;;;;4861652;29;20146;-64
2022/09/19 12:31:10;;;;;;;2.92;2.60;;;14.20;99.90;;;;;;4861626;29;20032;-63
2022/09/19 12:33:50;;;;;;;3.28;2.80;;;14.20;99.90;;;;;;4861989;29;20021;-63
2022/09/19 12:36:32;;;;;;;3.22;2.72;;;14.20;99.90;;;;;;4862633;29;20038;-63
2022/09/19 12:39:37;;;;;;;7.15;6.10;;;14.30;99.90;;;;;;4863108;29;20037;-63
2022/09/19 12:42:18;;;;;;;5.88;4.28;;;14.00;99.90;;;;;;4862149;29;20034;-64
2022/09/19 12:44:58;;;;;;;6.13;5.53;;;13.80;99.90;;;;;;4862692;29;20037;-63
2022/09/19 12:47:25;;;;;;;10.32;7.93;;;13.80;99.90;;;;;;4863918;29;20064;-63
2022/09/19 12:50:13;;;;;;;13.35;10.68;;;14.00;99.90;;;;;;4884225;29;20532;-62
2022/09/19 12:52:47;;;;;;;15.00;11.30;;;13.70;99.90;;;;;;4884964;29;20033;-61
2022/09/19 12:55:16;;;;;;;18.83;13.10;;;13.70;99.90;;;;;;4895721;29;20084;-63
2022/09/19 12:57:57;;;;;;;16.02;11.60;;;13.60;99.90;;;;;;4886042;29;20045;-62
2022/09/19 13:00:24;;;;;;;13.50;10.50;;;13.60;99.90;;;;;;4882174;29;20033;-61
2022/09/19 13:03:06;;;;;;;10.82;7.85;;;13.90;99.90;;;;;;4881864;29;20126;-62
2022/09/19 13:05:49;;;;;;;6.30;5.03;;;14.00;99.90;;;;;;4881340;29;20484;-61
2022/09/19 13:08:30;;;;;;;6.32;4.28;;;14.20;99.90;;;;;;4880285;29;20428;-64
2022/09/19 13:11:01;;;;;;;5.35;4.28;;;14.00;99.90;;;;;;4880285;29;20025;-60
2022/09/19 13:13:32;;;;;;;4.78;3.50;;;14.00;99.90;;;;;;4880796;29;20162;-63
2022/09/19 13:16:09;;;;;;;3.67;3.33;;;13.80;99.90;;;;;;4880909;29;20033;-63
2022/09/19 13:23:30;;;;;;;3.30;2.63;;;13.90;99.90;;;;;;4880104;29;20032;-61
2022/09/19 13:24:27;;;;;;;2.72;2.40;;;14.00;99.90;;;;;;4879813;29;20032;-60
2022/09/19 13:26:55;;;;;;;4.35;2.70;;;13.90;99.90;;;;;;4880158;29;20103;-62
2022/09/19 13:29:27;;;;;;;2.55;2.30;;;14.00;99.90;;;;;;4880556;29;20036;-64
2022/09/19 13:31:56;;;;;;;2.63;2.42;;;14.10;99.90;;;;;;4880772;29;20057;-63
2022/09/19 13:35:03;;;;;;;1.70;1.60;;;14.10;99.90;;;;;;4881191;29;20036;-62
2022/09/19 13:37:29;;;;;;;2.53;1.70;;;14.00;99.90;;;;;;4860685;29;20132;-60
2022/09/19 13:40:13;;;;;;;4.13;1.80;;;14.10;99.90;;;;;;4881234;29;20140;-60
2022/09/19 13:42:42;;;;;;;2.30;2.10;;;14.00;99.90;;;;;;4881675;29;20504;-62
2022/09/19 13:45:29;;;;;;;8.70;6.82;;;14.10;99.90;;;;;;4881521;29;20433;-60
2022/09/19 13:48:19;;;;;;;4.95;4.55;;;14.00;99.90;;;;;;4881454;29;20021;-62
2022/09/19 13:50:53;;;;;;;2.90;2.58;;;13.80;99.90;;;;;;4881313;29;20113;-64
2022/09/19 13:53:30;;;;;;;3.67;3.38;;;13.70;99.90;;;;;;4881397;29;20029;-61
2022/09/19 13:56:02;;;;;;;4.28;3.58;;;13.60;99.90;;;;;;4881239;29;20041;-62
2022/09/19 13:58:36;;;;;;;6.50;4.53;;;13.80;99.90;;;;;;4881542;29;20025;-63
2022/09/19 14:01:09;;;;;;;4.30;3.70;;;13.90;99.90;;;;;;4881516;29;20029;-61
2022/09/19 14:03:39;;;;;;;3.95;3.42;;;14.00;99.90;;;;;;4881216;29;20385;-63
2022/09/19 14:06:26;;;;;;;4.28;3.47;;;14.10;99.90;;;;;;4881410;29;20109;-60
2022/09/19 14:09:14;;;;;;;3.20;2.95;;;14.20;99.90;;;;;;4881061;29;20035;-62
2022/09/19 14:11:41;;;;;;;3.00;2.70;;;14.30;99.90;;;;;;4881300;29;20044;-62
2022/09/19 14:14:38;;;;;;;3.28;2.28;;;14.40;99.90;;;;;;4880989;29;20025;-63
2022/09/19 14:17:28;;;;;;;4.05;2.80;;;14.50;99.90;;;;;;4880928;29;20089;-60
2022/09/19 14:19:54;;;;;;;2.67;1.92;;;14.60;99.90;;;;;;4880957;29;20486;-61
2022/09/19 14:22:35;;;;;;;3.25;2.47;;;14.70;99.90;;;;;;4880852;29;20021;-63
2022/09/19 14:25:20;;;;;;;2.47;2.10;;;14.70;99.90;;;;;;4880929;29;20040;-62
2022/09/19 14:28:30;;;;;;;3.33;2.20;;;14.70;99.90;;;;;;4881288;29;20453;-61
2022/09/19 14:31:27;;;;;;;2.30;1.92;;;14.70;99.90;;;;;;4880526;29;20032;-64
2022/09/19 14:34:02;;;;;;;3.40;2.50;;;14.80;99.90;;;;;;4880629;29;20438;-64
2022/09/19 14:36:34;;;;;;;7.85;4.78;;;14.70;99.90;;;;;;4880573;29;20037;-60
2022/09/19 14:39:35;;;;;;;6.07;3.78;;;14.70;99.90;;;;;;4880341;29;20044;-63
2022/09/19 14:42:31;;;;;;;4.45;3.17;;;14.70;99.90;;;;;;4880558;29;20407;-60
2022/09/19 14:45:36;;;;;;;3.75;2.97;;;14.70;99.90;;;;;;4880575;29;20025;-61
2022/09/19 14:48:04;;;;;;;;;;;14.70;99.90;;;;;;4880458;29;20080;-62
2022/09/19 14:50:38;;;;;;;2.63;2.20;;;14.70;99.90;;;;;;4880291;29;19911;-64
2022/09/19 14:53:18;;;;;;;2.58;2.22;;;14.80;99.90;;;;;;4880191;29;20029;-63
2022/09/19 14:55:49;;;;;;;2.72;2.00;;;14.80;99.90;;;;;;4880258;29;20029;-61
2022/09/19 14:58:27;;;;;;;2.22;1.85;;;14.90;99.90;;;;;;4880167;29;20100;-63
2022/09/19 15:01:07;;;;;;;3.67;2.63;;;15.00;99.90;;;;;;4880466;29;20036;-62
2022/09/19 15:04:16;;;;;;;4.20;3.10;;;14.90;99.90;;;;;;4880339;29;20029;-61
2022/09/19 15:06:47;;;;;;;3.22;2.53;;;14.90;99.90;;;;;;4786574;30;20046;-63
2022/09/19 15:09:29;;;;;;;2.28;1.95;;;14.90;99.90;;;;;;4869245;29;20170;-62
2022/09/19 15:12:04;;;;;;;2.13;1.92;;;14.70;99.90;;;;;;4879991;29;20021;-63
2022/09/19 15:14:30;;;;;;;2.58;2.10;;;14.70;99.90;;;;;;4879980;29;20033;-63
2022/09/19 15:17:13;;;;;;;2.92;2.28;;;14.80;99.90;;;;;;4880215;29;20029;-63
2022/09/19 15:19:49;;;;;;;2.92;2.10;;;14.70;99.90;;;;;;4879904;29;20025;-63
2022/09/19 15:22:24;;;;;;;3.38;2.70;;;14.60;99.90;;;;;;4879895;29;20037;-62
2022/09/19 15:24:52;;;;;;;3.42;2.88;;;14.60;99.90;;;;;;4879933;29;20105;-61
2022/09/19 15:27:20;;;;;;;3.25;2.75;;;14.60;99.90;;;;;;4879778;29;20033;-61
2022/09/19 15:29:48;;;;;;;3.28;2.75;;;14.60;99.90;;;;;;4879601;29;20029;-62
2022/09/19 15:32:25;;;;;;;3.13;2.80;;;14.60;99.90;;;;;;4879691;29;20081;-63
2022/09/19 15:34:54;;;;;;;2.88;2.40;;;14.70;99.90;;;;;;4879806;29;20468;-62
2022/09/19 15:37:21;;;;;;;2.25;1.85;;;14.80;99.90;;;;;;4879473;29;20116;-60
2022/09/19 15:39:51;;;;;;;2.20;2.00;;;14.90;99.90;;;;;;4879561;29;20059;-62
2022/09/19 15:42:18;;;;;;;2.15;1.98;;;15.00;99.90;;;;;;4879830;29;20025;-62
2022/09/19 15:44:45;;;;;;;2.58;2.28;;;15.40;99.90;;;;;;4879815;29;20037;-63
2022/09/19 15:47:26;;;;;;;2.20;2.00;;;16.00;99.90;;;;;;4879536;29;20060;-63
2022/09/19 15:49:57;;;;;;;2.25;1.95;;;16.00;99.90;;;;;;4879630;29;20036;-63
2022/09/19 15:52:33;;;;;;;1.60;1.40;;;16.00;99.90;;;;;;4879587;29;20120;-60
2022/09/19 15:55:00;;;;;;;1.75;1.65;;;16.30;99.90;;;;;;4879376;29;20040;-61
2022/09/19 15:57:32;;;;;;;1.70;1.58;;;16.50;99.90;;;;;;4879516;29;20077;-61
2022/09/19 16:00:01;;;;;;;1.92;1.60;;;16.60;99.90;;;;;;4881058;29;20025;-60
2022/09/19 16:02:42;;;;;;;2.20;1.50;;;16.60;99.90;;;;;;4882949;29;20044;-62
2022/09/19 16:05:18;;;;;;;2.20;1.58;;;16.60;99.90;;;;;;4883546;29;20040;-62
2022/09/19 16:10:38;;;;;;;1.48;1.30;;;16.40;99.90;;;;;;4883467;29;20037;-61
2022/09/19 16:13:26;;;;;;;6.43;5.47;;;16.20;99.90;;;;;;4883142;29;20036;-61
2022/09/19 16:15:54;;;;;;;32.95;25.73;;;16.00;99.90;;;;;;4883334;29;20087;-63
2022/09/19 16:18:19;;;;;;;23.30;18.92;;;15.70;99.90;;;;;;4883027;29;20480;-60
2022/09/19 16:21:13;;;;;;;15.18;13.38;;;15.20;99.90;;;;;;4882971;29;20028;-60
2022/09/19 16:23:44;;;;;;;8.80;7.65;;;14.70;99.90;;;;;;4879753;29;20399;-61
2022/09/19 16:26:13;;;;;;;8.18;7.00;;;14.30;99.90;;;;;;4882927;29;20387;-63
2022/09/19 16:28:47;;;;;;;13.13;11.68;;;13.90;99.90;;;;;;4882780;29;20033;-61
2022/09/19 16:31:26;;;;;;;12.27;11.18;;;13.60;99.90;;;;;;4882833;29;20076;-63
2022/09/19 16:34:03;;;;;;;13.93;11.93;;;13.40;99.90;;;;;;4882875;29;20115;-62
2022/09/19 16:36:29;;;;;;;11.35;9.63;;;13.20;99.90;;;;;;4882705;29;20437;-64
2022/09/19 16:38:59;;;;;;;11.60;9.25;;;13.00;99.90;;;;;;4882739;29;20026;-60
2022/09/19 16:41:26;;;;;;;11.10;8.50;;;12.90;99.90;;;;;;4882450;29;20101;-62
2022/09/19 16:44:01;;;;;;;12.05;9.70;;;12.70;99.90;;;;;;4882692;29;20028;-63
2022/09/19 16:46:27;;;;;;;13.43;9.65;;;12.60;99.90;;;;;;4882553;29;20031;-63
2022/09/19 16:48:53;;;;;;;10.93;9.73;;;12.50;99.90;;;;;;4882360;29;20357;-60
2022/09/19 16:51:21;;;;;;;13.95;10.77;;;12.50;99.90;;;;;;4882450;29;20022;-61
2022/09/19 16:53:46;;;;;;;13.27;11.40;;;12.40;99.90;;;;;;4882375;29;20030;-62
2022/09/19 16:56:18;;;;;;;17.83;14.57;;;12.40;99.90;;;;;;4882437;29;20037;-63
2022/09/19 16:58:47;;;;;;;16.77;14.20;;;12.40;99.90;;;;;;4882315;29;20157;-62
2022/09/19 17:01:13;;;;;;;12.00;9.80;;;12.40;99.90;;;;;;4882199;29;20032;-60
2022/09/19 17:03:39;;;;;;;11.23;9.65;;;12.40;99.90;;;;;;4882199;29;20021;-61
2022/09/19 17:06:09;;;;;;;14.65;12.13;;;12.30;99.90;;;;;;4882204;29;20029;-60
2022/09/19 17:08:34;;;;;;;14.20;12.50;;;12.20;99.90;;;;;;4882000;29;20037;-63
2022/09/19 17:11:00;;;;;;;11.25;10.10;;;12.00;99.90;;;;;;4881917;29;20105;-61
2022/09/19 17:13:26;;;;;;;9.93;8.88;;;11.90;99.90;;;;;;4882049;29;20052;-61
2022/09/19 17:16:04;;;;;;;11.68;9.70;;;12.00;99.90;;;;;;4881778;29;20037;-60
2022/09/19 17:18:30;;;;;;;17.92;14.38;;;12.20;99.90;;;;;;4881813;29;20039;-63
2022/09/19 17:21:00;;;;;;;15.18;12.82;;;12.20;99.90;;;;;;4882001;29;20531;-61
2022/09/19 17:23:27;;;;;;;20.08;16.17;;;12.20;99.90;;;;;;4881824;29;20036;-61
2022/09/19 17:25:55;;;;;;;19.52;15.25;;;12.30;99.90;;;;;;4882071;29;20033;-61
2022/09/19 17:28:27;;;;;;;14.35;12.00;;;12.20;99.90;;;;;;4881820;29;20051;-60
2022/09/19 17:30:55;;;;;;;13.07;10.43;;;12.20;99.90;;;;;;4881684;29;20021;-61
2022/09/19 17:33:24;;;;;;;11.27;9.00;;;12.40;99.90;;;;;;4881748;29;20025;-63
2022/09/19 17:35:51;;;;;;;11.15;9.45;;;12.40;99.90;;;;;;4881624;29;20154;-61
2022/09/19 17:38:17;;;;;;;9.70;8.35;;;12.50;99.90;;;;;;4881635;29;20024;-61
2022/09/19 17:40:47;;;;;;;11.38;9.23;;;12.50;99.90;;;;;;4881570;29;20433;-61
2022/09/19 17:43:19;;;;;;;10.32;8.60;;;12.50;99.90;;;;;;4881535;29;20025;-63
2022/09/19 17:45:46;;;;;;;9.02;7.97;;;12.40;99.90;;;;;;4881646;29;20028;-63
2022/09/19 17:48:14;;;;;;;7.68;6.72;;;12.40;99.90;;;;;;4881395;29;20502;-62
2022/09/19 17:50:40;;;;;;;6.40;5.80;;;12.40;99.90;;;;;;4881234;29;20100;-63
2022/09/19 17:53:09;;;;;;;14.40;11.52;;;12.40;99.90;;;;;;4881460;29;20053;-61
2022/09/19 17:55:36;;;;;;;16.23;11.68;;;12.40;99.90;;;;;;4881248;29;20025;-61
2022/09/19 17:58:08;;;;;;;12.02;10.02;;;12.30;99.90;;;;;;4881206;29;20120;-63
2022/09/19 18:00:33;;;;;;;12.40;8.93;;;12.10;99.90;;;;;;4880858;29;20037;-63
2022/09/19 18:03:17;;;;;;;11.25;9.00;;;12.10;99.90;;;;;;4881070;29;20084;-63
2022/09/19 18:05:59;;;;;;;9.02;7.90;;;12.20;99.90;;;;;;4880652;29;20554;-61
2022/09/19 18:08:26;;;;;;;10.25;7.85;;;12.20;99.90;;;;;;4880252;29;20102;-61
2022/09/19 18:10:58;;;;;;;10.43;8.77;;;12.20;99.90;;;;;;4879872;29;20078;-62
2022/09/19 18:13:24;;;;;;;9.50;7.55;;;12.20;99.90;;;;;;4881150;29;20028;-62
2022/09/19 18:15:51;;;;;;;10.85;9.05;;;12.10;99.90;;;;;;4871309;29;20037;-61
2022/09/19 18:18:18;;;;;;;15.05;11.00;;;12.10;99.90;;;;;;4861786;29;20033;-63
2022/09/19 18:20:57;;;;;;;16.35;11.93;;;12.10;99.90;;;;;;4861727;29;20408;-59
2022/09/19 18:23:23;;;;;;;11.25;9.38;;;12.00;99.90;;;;;;4860784;29;20436;-62
2022/09/19 18:25:49;;;;;;;10.57;9.48;;;12.00;99.90;;;;;;4859635;29;20402;-61
2022/09/19 18:28:15;;;;;;;14.32;11.82;;;11.90;99.90;;;;;;4862500;29;20021;-61
2022/09/19 18:30:41;;;;;;;11.52;9.35;;;11.90;99.90;;;;;;4869307;29;20062;-63
2022/09/19 18:33:07;;;;;;;11.75;10.43;;;11.90;99.90;;;;;;4880880;29;20104;-63
2022/09/19 18:35:33;;;;;;;15.90;11.95;;;11.80;99.90;;;;;;4880308;29;20425;-61
2022/09/19 18:37:58;;;;;;;15.13;12.38;;;11.80;99.90;;;;;;4880467;29;20036;-59
2022/09/19 18:40:25;;;;;;;20.90;15.73;;;11.70;99.90;;;;;;4880464;29;20461;-61
2022/09/19 18:42:52;;;;;;;15.05;12.70;;;11.70;99.90;;;;;;4880519;29;20120;-59
2022/09/19 18:45:18;;;;;;;18.80;13.82;;;11.70;99.90;;;;;;4880338;29;20029;-63
2022/09/19 18:47:43;;;;;;;24.38;19.73;;;11.70;99.90;;;;;;4879304;29;20060;-60
2022/09/19 18:50:10;;;;;;;19.83;15.13;;;11.60;99.90;;;;;;4879345;29;20036;-60
2022/09/19 18:52:36;;;;;;;16.10;13.80;;;11.40;99.90;;;;;;4879790;29;20029;-62
2022/09/19 18:55:02;;;;;;;15.95;14.02;;;11.40;99.90;;;;;;4880131;29;20098;-62
2022/09/19 18:57:29;;;;;;;18.13;15.90;;;11.50;99.90;;;;;;4880492;29;20061;-61
2022/09/19 18:59:55;;;;;;;15.55;13.45;;;11.50;99.90;;;;;;4880103;29;20036;-60
2022/09/19 19:02:22;;;;;;;12.70;11.40;;;11.50;99.90;;;;;;4880059;29;20021;-62
2022/09/19 19:04:48;;;;;;;13.90;10.82;;;11.50;99.90;;;;;;4880386;29;20080;-62
2022/09/19 19:07:15;;;;;;;11.38;10.18;;;11.50;99.90;;;;;;4880142;29;20510;-59
2022/09/19 19:09:41;;;;;;;12.18;9.77;;;11.50;99.90;;;;;;4880199;29;20029;-61
2022/09/19 19:12:07;;;;;;;11.02;9.82;;;11.50;99.90;;;;;;4879979;29;20029;-60
2022/09/19 19:14:33;;;;;;;12.25;9.52;;;11.50;99.90;;;;;;4879893;29;20130;-63
2022/09/19 19:17:00;;;;;;;11.23;9.18;;;11.50;99.90;;;;;;4879900;29;20495;-64
2022/09/19 19:19:26;;;;;;;9.63;7.78;;;11.40;99.90;;;;;;4880029;29;20085;-60
2022/09/19 19:21:52;;;;;;;10.48;8.20;;;11.40;99.90;;;;;;4879793;29;20025;-63
2022/09/19 19:24:22;;;;;;;23.27;18.83;;;11.40;99.90;;;;;;4879792;29;20096;-59
2022/09/19 19:26:49;;;;;;;13.82;11.27;;;11.30;99.90;;;;;;4880086;29;20045;-62
2022/09/19 19:29:15;;;;;;;25.95;19.38;;;11.20;99.90;;;;;;4879628;29;20076;-60
2022/09/19 19:31:40;;;;;;;17.13;14.35;;;11.20;99.90;;;;;;4879876;29;20026;-61
2022/09/19 19:34:07;;;;;;;17.65;14.27;;;11.10;99.90;;;;;;4879633;29;20088;-63